createdAt,value
2019-03-04T00:01:48.306Z,91.30
2019-03-04T00:04:17.486Z,91.40
2019-03-04T00:06:46.635Z,91.40
2019-03-04T00:09:15.790Z,91.40
2019-03-04T00:11:44.970Z,91.40
2019-03-04T00:14:14.145Z,91.40
2019-03-04T00:16:43.302Z,91.40
2019-03-04T00:19:12.537Z,91.70
2019-03-04T00:21:41.702Z,91.40
2019-03-04T00:24:10.929Z,91.40
2019-03-04T00:26:40.196Z,91.40
2019-03-04T00:29:09.362Z,91.40
2019-03-04T00:31:38.509Z,91.30
2019-03-04T00:34:07.694Z,91.20
2019-03-04T00:36:37.225Z,91.20
2019-03-04T00:39:10.419Z,91.10
2019-03-04T00:41:39.624Z,91.10
2019-03-04T00:44:08.870Z,91.10
2019-03-04T00:46:38.056Z,91.10
2019-03-04T00:49:07.214Z,91.10
2019-03-04T00:51:36.431Z,91.10
2019-03-04T00:54:05.601Z,91.10
2019-03-04T00:56:34.890Z,91.20
2019-03-04T00:59:04.074Z,91.20
2019-03-04T01:01:33.232Z,91.20
2019-03-04T01:04:02.438Z,91.30
2019-03-04T01:06:31.598Z,91.30
2019-03-04T01:09:00.865Z,91.30
2019-03-04T01:11:30.059Z,91.40
2019-03-04T01:13:59.243Z,91.40
2019-03-04T01:16:28.463Z,91.40
2019-03-04T01:18:57.609Z,91.40
2019-03-04T01:21:26.753Z,91.40
2019-03-04T01:23:56.052Z,91.30
2019-03-04T01:26:25.257Z,91.40
2019-03-04T01:28:54.481Z,91.40
2019-03-04T01:31:23.725Z,91.40
2019-03-04T01:33:52.879Z,91.40
2019-03-04T01:36:22.097Z,91.40
2019-03-04T01:38:51.374Z,91.40
2019-03-04T01:41:20.516Z,91.40
2019-03-04T01:43:49.734Z,91.40
2019-03-04T01:46:18.885Z,91.40
2019-03-04T01:48:48.058Z,91.40
2019-03-04T01:51:17.238Z,91.40
2019-03-04T01:53:46.393Z,91.40
2019-03-04T01:56:15.529Z,91.40
2019-03-04T01:58:44.682Z,91.40
2019-03-04T02:01:13.814Z,91.40
2019-03-04T02:03:43.029Z,91.40
2019-03-04T02:06:12.241Z,91.30
2019-03-04T02:08:41.417Z,91.30
2019-03-04T02:11:10.631Z,91.30
2019-03-04T02:13:39.789Z,91.40
2019-03-04T02:16:08.954Z,91.40
2019-03-04T02:18:38.114Z,91.40
2019-03-04T02:21:07.277Z,91.40
2019-03-04T02:23:36.460Z,91.30
2019-03-04T02:26:33.019Z,91.30
2019-03-04T02:29:02.198Z,91.30
2019-03-04T02:31:31.362Z,91.40
2019-03-04T02:34:00.504Z,91.30
2019-03-04T02:36:29.729Z,91.30
2019-03-04T02:38:58.866Z,91.30
2019-03-04T02:41:28.010Z,91.40
2019-03-04T02:43:57.196Z,91.30
2019-03-04T02:46:26.383Z,91.30
2019-03-04T02:48:55.627Z,91.40
2019-03-04T02:51:24.833Z,91.40
2019-03-04T02:53:54.045Z,91.40
2019-03-04T02:56:23.205Z,91.50
2019-03-04T02:58:52.414Z,91.50
2019-03-04T03:01:21.632Z,91.50
2019-03-04T03:03:50.769Z,91.50
2019-03-04T03:06:19.950Z,91.50
2019-03-04T03:08:49.157Z,91.40
2019-03-04T03:11:18.303Z,91.30
2019-03-04T03:13:47.470Z,91.30
2019-03-04T03:16:16.619Z,91.20
2019-03-04T03:18:45.772Z,91.10
2019-03-04T03:21:14.931Z,91.10
2019-03-04T03:23:44.073Z,91.10
2019-03-04T03:26:13.227Z,91.20
2019-03-04T03:28:42.490Z,91.10
2019-03-04T03:31:11.734Z,91.10
2019-03-04T03:33:40.949Z,91.00
2019-03-04T03:36:10.246Z,91.00
2019-03-04T03:38:39.551Z,91.00
2019-03-04T03:41:08.767Z,91.00
2019-03-04T03:43:37.922Z,91.00
2019-03-04T03:46:07.145Z,91.10
2019-03-04T03:48:36.459Z,91.00
2019-03-04T03:51:05.742Z,91.30
2019-03-04T03:53:34.907Z,91.10
2019-03-04T03:56:04.058Z,91.20
2019-03-04T03:58:33.272Z,91.20
2019-03-04T04:01:02.440Z,91.50
2019-03-04T04:03:31.591Z,91.20
2019-03-04T04:06:00.774Z,91.30
2019-03-04T04:08:29.908Z,91.30
2019-03-04T04:10:59.075Z,91.40
2019-03-04T04:13:28.358Z,91.40
2019-03-04T04:15:57.511Z,91.40
2019-03-04T04:18:26.686Z,91.40
2019-03-04T04:20:55.874Z,91.40
2019-03-04T04:23:25.074Z,91.40
2019-03-04T04:25:54.315Z,91.40
2019-03-04T04:28:23.452Z,91.40
2019-03-04T04:30:52.670Z,91.40
2019-03-04T04:33:21.910Z,91.40
2019-03-04T04:35:51.078Z,91.40
2019-03-04T04:38:20.225Z,91.40
2019-03-04T04:40:49.401Z,91.70
2019-03-04T04:43:18.546Z,91.40
2019-03-04T04:45:47.725Z,91.40
2019-03-04T04:48:16.938Z,91.40
2019-03-04T04:50:46.085Z,91.40
2019-03-04T04:53:15.343Z,91.30
2019-03-04T04:55:44.509Z,91.60
2019-03-04T04:58:14.066Z,91.30
2019-03-04T05:00:43.232Z,91.70
2019-03-04T05:03:12.369Z,91.40
2019-03-04T05:05:41.533Z,91.40
2019-03-04T05:08:10.674Z,91.40
2019-03-04T05:10:39.829Z,91.40
2019-03-04T05:13:09.070Z,91.30
2019-03-04T05:15:38.209Z,91.40
2019-03-04T05:18:07.449Z,91.30
2019-03-04T05:20:36.610Z,91.30
2019-03-04T05:23:05.858Z,91.40
2019-03-04T05:25:35.033Z,91.40
2019-03-04T05:28:04.177Z,91.40
2019-03-04T05:30:33.381Z,91.30
2019-03-04T05:33:02.553Z,91.30
2019-03-04T05:35:31.814Z,91.10
2019-03-04T05:38:00.953Z,91.00
2019-03-04T05:40:30.135Z,91.00
2019-03-04T05:42:59.287Z,91.00
2019-03-04T05:45:28.429Z,90.90
2019-03-04T05:47:57.626Z,91.20
2019-03-04T05:50:26.921Z,90.70
2019-03-04T05:52:56.080Z,90.70
2019-03-04T05:55:25.265Z,90.70
2019-03-04T05:57:54.419Z,90.60
2019-03-04T06:00:24.553Z,90.60
2019-03-04T06:02:53.741Z,90.50
2019-03-04T06:05:22.933Z,90.50
2019-03-04T06:08:00.877Z,90.50
2019-03-04T06:10:30.030Z,90.50
2019-03-04T06:12:59.208Z,90.40
2019-03-04T06:15:28.356Z,90.40
2019-03-04T06:17:57.495Z,90.40
2019-03-04T06:20:26.646Z,90.30
2019-03-04T06:22:55.785Z,90.30
2019-03-04T06:25:28.627Z,90.40
2019-03-04T06:27:57.952Z,90.30
2019-03-04T06:30:27.720Z,90.30
2019-03-04T06:32:56.950Z,90.30
2019-03-04T06:35:26.113Z,90.30
2019-03-04T06:37:55.430Z,90.30
2019-03-04T06:40:26.058Z,90.20
2019-03-04T06:42:55.297Z,90.30
2019-03-04T06:45:24.473Z,90.30
2019-03-04T06:47:53.698Z,90.40
2019-03-04T06:50:54.089Z,90.70
2019-03-04T06:53:39.470Z,90.80
2019-03-04T06:56:20.772Z,90.50
2019-03-04T06:58:51.929Z,90.90
2019-03-04T07:01:33.419Z,90.60
2019-03-04T07:04:20.627Z,90.60
2019-03-04T07:06:49.961Z,90.60
2019-03-04T07:09:20.361Z,90.60
2019-03-04T07:11:50.681Z,90.50
2019-03-04T07:14:19.825Z,90.50
2019-03-04T07:16:50.319Z,90.90
2019-03-04T07:19:27.502Z,90.30
2019-03-04T07:21:56.753Z,90.20
2019-03-04T07:24:26.070Z,90.10
2019-03-04T07:26:55.266Z,90.00
2019-03-04T07:29:24.442Z,90.00
2019-03-04T07:31:53.770Z,90.00
2019-03-04T07:34:23.026Z,89.70
2019-03-04T07:36:52.227Z,89.70
2019-03-04T07:39:21.402Z,89.80
2019-03-04T07:41:57.966Z,89.90
2019-03-04T07:44:27.114Z,89.70
2019-03-04T07:46:56.293Z,89.50
2019-03-04T07:49:25.469Z,89.50
2019-03-04T07:51:55.203Z,89.40
2019-03-04T07:54:24.366Z,89.30
2019-03-04T07:56:54.265Z,89.40
2019-03-04T07:59:23.506Z,89.10
2019-03-04T08:01:52.690Z,88.90
2019-03-04T08:04:21.841Z,88.90
2019-03-04T08:06:51.286Z,88.60
2019-03-04T08:09:55.489Z,88.30
2019-03-04T08:12:55.313Z,88.90
2019-03-04T08:15:24.878Z,87.70
2019-03-04T08:17:54.234Z,87.40
2019-03-04T08:20:23.486Z,86.80
2019-03-04T08:22:52.710Z,86.20
2019-03-04T08:25:21.957Z,86.30
2019-03-04T08:27:51.634Z,86.00
2019-03-04T08:30:22.636Z,86.50
2019-03-04T08:32:51.789Z,85.50
2019-03-04T08:35:20.978Z,85.40
2019-03-04T08:37:50.114Z,85.30
2019-03-04T08:40:19.481Z,85.10
2019-03-04T08:42:48.690Z,84.50
2019-03-04T08:45:19.434Z,83.90
2019-03-04T08:47:48.641Z,83.40
2019-03-04T08:50:18.024Z,83.00
2019-03-04T08:52:47.261Z,83.30
2019-03-04T08:55:17.177Z,83.10
2019-03-04T08:57:46.374Z,82.90
2019-03-04T09:00:25.421Z,83.00
2019-03-04T09:02:54.797Z,82.60
2019-03-04T09:05:24.009Z,82.30
2019-03-04T09:07:53.249Z,82.50
2019-03-04T09:10:27.174Z,82.00
2019-03-04T09:12:56.352Z,82.00
2019-03-04T09:15:25.538Z,81.90
2019-03-04T09:17:54.826Z,81.30
2019-03-04T09:20:25.473Z,80.40
2019-03-04T09:22:55.214Z,79.10
2019-03-04T09:25:32.981Z,77.70
2019-03-04T09:28:02.331Z,77.50
2019-03-04T09:30:31.581Z,77.70
2019-03-04T09:33:00.854Z,77.70
2019-03-04T09:35:32.426Z,78.30
2019-03-04T09:38:00.961Z,78.20
2019-03-04T09:40:30.775Z,78.20
2019-03-04T09:43:00.234Z,78.50
2019-03-04T09:45:38.381Z,78.30
2019-03-04T09:48:00.377Z,78.00
2019-03-04T09:50:29.586Z,77.70
2019-03-04T09:52:58.761Z,78.00
2019-03-04T09:55:28.228Z,78.50
2019-03-04T09:57:57.433Z,79.00
2019-03-04T10:00:32.329Z,78.60
2019-03-04T10:03:38.642Z,78.40
2019-03-04T10:06:50.481Z,78.00
2019-03-04T10:10:02.836Z,77.40
2019-03-04T10:12:54.125Z,76.90
2019-03-04T10:15:48.006Z,75.50
2019-03-04T10:19:04.832Z,75.20
2019-03-04T10:21:52.129Z,74.70
2019-03-04T10:24:52.501Z,73.50
2019-03-04T10:28:03.725Z,72.30
2019-03-04T10:31:26.108Z,69.50
2019-03-04T10:34:17.465Z,68.00
2019-03-04T10:37:18.620Z,57.90
2019-03-04T10:40:04.989Z,47.50
2019-03-04T10:43:14.237Z,39.80
2019-03-04T10:46:01.439Z,37.90
2019-03-04T10:48:30.698Z,37.00
2019-03-04T10:50:59.973Z,37.00
2019-03-04T10:53:29.234Z,36.30
2019-03-04T10:55:58.460Z,35.30
2019-03-04T10:58:27.717Z,36.80
2019-03-04T11:00:56.887Z,37.80
2019-03-04T11:03:26.059Z,39.50
2019-03-04T11:05:55.279Z,42.10
2019-03-04T11:08:24.445Z,45.30
2019-03-04T11:10:53.590Z,46.90
2019-03-04T11:13:22.742Z,48.00
2019-03-04T11:15:51.969Z,48.90
2019-03-04T11:18:21.829Z,50.10
2019-03-04T11:20:51.020Z,51.00
2019-03-04T11:23:21.350Z,51.80
2019-03-04T11:25:50.505Z,52.80
2019-03-04T11:28:19.729Z,53.20
2019-03-04T11:30:49.009Z,54.00
2019-03-04T11:33:18.197Z,54.70
2019-03-04T11:35:47.414Z,55.10
2019-03-04T11:38:38.582Z,55.40
2019-03-04T11:41:08.864Z,55.30
2019-03-04T11:43:38.125Z,55.70
2019-03-04T11:46:07.363Z,56.40
2019-03-04T11:48:36.699Z,56.70
2019-03-04T11:51:05.970Z,57.20
2019-03-04T11:53:35.145Z,57.70
2019-03-04T11:56:04.305Z,58.00
2019-03-04T11:58:33.505Z,58.20
2019-03-04T12:01:15.356Z,58.50
2019-03-04T12:03:44.605Z,58.40
2019-03-04T12:06:13.878Z,58.30
2019-03-04T12:08:43.198Z,58.40
2019-03-04T12:11:12.445Z,58.10
2019-03-04T12:13:41.691Z,58.00
2019-03-04T12:16:10.915Z,58.10
2019-03-04T12:18:40.054Z,58.20
2019-03-04T12:21:09.292Z,58.60
2019-03-04T12:23:38.438Z,58.80
2019-03-04T12:26:07.646Z,59.00
2019-03-04T12:28:36.874Z,58.90
2019-03-04T12:31:06.313Z,59.40
2019-03-04T12:33:35.486Z,59.60
2019-03-04T12:36:05.064Z,60.00
2019-03-04T12:38:34.270Z,60.10
2019-03-04T12:41:06.299Z,60.10
2019-03-04T12:43:35.457Z,60.30
2019-03-04T12:46:04.770Z,60.50
2019-03-04T12:48:33.909Z,61.40
2019-03-04T12:51:03.131Z,60.80
2019-03-04T12:53:37.279Z,60.70
2019-03-04T12:56:03.546Z,60.80
2019-03-04T12:58:32.690Z,61.00
2019-03-04T13:01:01.890Z,61.10
2019-03-04T13:03:31.249Z,60.80
2019-03-04T13:06:00.484Z,60.80
2019-03-04T13:08:29.951Z,60.70
2019-03-04T13:10:59.213Z,60.40
2019-03-04T13:13:28.388Z,60.00
2019-03-04T13:15:58.117Z,59.70
2019-03-04T13:18:27.285Z,59.50
2019-03-04T13:20:56.465Z,59.70
2019-03-04T13:23:25.797Z,59.80
2019-03-04T13:25:55.023Z,59.90
2019-03-04T13:28:24.173Z,60.10
2019-03-04T13:30:53.437Z,60.30
2019-03-04T13:33:22.654Z,60.70
2019-03-04T13:35:51.912Z,60.70
2019-03-04T13:38:21.125Z,60.90
2019-03-04T13:40:50.423Z,61.10
2019-03-04T13:43:19.617Z,61.10
2019-03-04T13:45:48.794Z,61.20
2019-03-04T13:48:18.019Z,61.30
2019-03-04T13:50:47.241Z,61.50
2019-03-04T13:53:16.406Z,61.30
2019-03-04T13:55:45.588Z,61.50
2019-03-04T13:58:14.953Z,61.70
2019-03-04T14:00:44.237Z,61.80
2019-03-04T14:03:13.801Z,62.00
2019-03-04T14:05:42.956Z,62.00
2019-03-04T14:08:12.134Z,62.10
2019-03-04T14:10:41.320Z,62.00
2019-03-04T14:13:10.614Z,62.10
2019-03-04T14:15:40.425Z,62.20
2019-03-04T14:18:09.598Z,62.20
2019-03-04T14:20:38.798Z,62.30
2019-03-04T14:23:07.966Z,62.40
2019-03-04T14:25:37.211Z,62.50
2019-03-04T14:28:06.395Z,62.40
2019-03-04T14:30:35.621Z,62.30
2019-03-04T14:33:05.034Z,62.50
2019-03-04T14:35:34.462Z,62.50
2019-03-04T14:38:03.690Z,62.70
2019-03-04T14:40:32.874Z,62.70
2019-03-04T14:43:02.154Z,62.80
2019-03-04T14:45:31.444Z,62.90
2019-03-04T14:48:00.702Z,62.90
2019-03-04T14:50:29.957Z,63.00
2019-03-04T14:52:59.193Z,63.00
2019-03-04T14:55:28.438Z,63.10
2019-03-04T14:57:57.627Z,63.20
2019-03-04T15:00:38.170Z,63.30
2019-03-04T15:03:07.690Z,63.30
2019-03-04T15:05:36.860Z,63.40
2019-03-04T15:08:06.109Z,63.30
2019-03-04T15:10:35.369Z,63.00
2019-03-04T15:13:04.618Z,62.90
2019-03-04T15:15:33.805Z,62.90
2019-03-04T15:18:02.989Z,62.90
2019-03-04T15:20:33.618Z,63.00
2019-03-04T15:23:02.961Z,62.90
2019-03-04T15:25:32.239Z,63.10
2019-03-04T15:28:09.776Z,62.70
2019-03-04T15:30:39.109Z,62.60
2019-03-04T15:33:17.599Z,62.50
2019-03-04T15:35:39.231Z,61.90
2019-03-04T15:38:08.382Z,61.10
2019-03-04T15:40:37.596Z,60.40
2019-03-04T15:43:06.814Z,59.80
2019-03-04T15:45:36.850Z,59.20
2019-03-04T15:48:06.254Z,59.00
2019-03-04T15:50:35.402Z,58.50
2019-03-04T15:53:04.581Z,58.00
2019-03-04T15:55:33.792Z,58.20
2019-03-04T15:58:03.110Z,57.70
2019-03-04T16:00:32.666Z,57.60
2019-03-04T16:03:01.835Z,57.40
2019-03-04T16:05:31.090Z,56.90
2019-03-04T16:08:07.225Z,57.10
2019-03-04T16:10:32.662Z,56.60
2019-03-04T16:13:02.038Z,56.80
2019-03-04T16:15:31.252Z,56.90
2019-03-04T16:18:00.420Z,57.20
2019-03-04T16:20:29.677Z,57.40
2019-03-04T16:22:58.870Z,57.40
2019-03-04T16:25:28.022Z,58.00
2019-03-04T16:28:03.077Z,58.40
2019-03-04T16:30:32.310Z,58.70
2019-03-04T16:33:01.509Z,59.10
2019-03-04T16:35:30.750Z,59.20
2019-03-04T16:38:00.102Z,59.20
2019-03-04T16:40:29.469Z,59.30
2019-03-04T16:42:58.621Z,59.30
2019-03-04T16:45:27.800Z,59.40
2019-03-04T16:47:57.028Z,59.30
2019-03-04T16:50:26.251Z,59.30
2019-03-04T16:52:55.569Z,59.40
2019-03-04T16:55:24.769Z,59.30
2019-03-04T16:57:53.918Z,59.40
2019-03-04T17:00:23.185Z,59.30
2019-03-04T17:02:52.341Z,59.10
2019-03-04T17:05:21.537Z,58.50
2019-03-04T17:07:51.113Z,59.00
2019-03-04T17:10:20.406Z,59.00
2019-03-04T17:12:49.567Z,58.90
2019-03-04T17:15:19.405Z,58.90
2019-03-04T17:17:48.675Z,58.80
2019-03-04T17:20:18.532Z,58.90
2019-03-04T17:22:47.988Z,59.00
2019-03-04T17:25:17.526Z,58.90
2019-03-04T17:27:46.797Z,59.10
2019-03-04T17:30:17.904Z,59.10
2019-03-04T17:32:47.506Z,59.20
2019-03-04T17:35:18.289Z,59.40
2019-03-04T17:37:47.734Z,59.50
2019-03-04T17:40:17.197Z,59.70
2019-03-04T17:42:46.665Z,59.80
2019-03-04T17:45:16.862Z,59.90
2019-03-04T17:47:46.097Z,60.10
2019-03-04T17:50:18.566Z,60.50
2019-03-04T17:52:47.777Z,60.80
2019-03-04T17:55:17.014Z,61.00
2019-03-04T17:57:46.165Z,61.10
2019-03-04T18:00:16.679Z,61.30
2019-03-04T18:02:49.097Z,62.00
2019-03-04T18:05:18.265Z,63.80
2019-03-04T18:07:47.523Z,63.90
2019-03-04T18:10:22.057Z,64.80
2019-03-04T18:12:53.149Z,65.70
2019-03-04T18:15:36.401Z,67.80
2019-03-04T18:18:06.526Z,68.90
2019-03-04T18:20:36.213Z,71.60
2019-03-04T18:23:05.447Z,74.50
2019-03-04T18:25:58.449Z,77.90
2019-03-04T18:28:57.081Z,78.80
2019-03-04T18:31:28.493Z,79.00
2019-03-04T18:34:58.773Z,83.60
2019-03-04T18:38:09.897Z,84.10
2019-03-04T18:41:09.677Z,85.80
2019-03-04T18:44:01.918Z,87.40
2019-03-04T18:47:30.859Z,88.60
2019-03-04T18:50:00.290Z,89.40
2019-03-04T18:52:29.637Z,90.20
2019-03-04T18:54:58.802Z,90.70
2019-03-04T18:57:28.966Z,91.70
2019-03-04T18:59:58.186Z,92.30
2019-03-04T19:02:27.348Z,93.50
2019-03-04T19:04:56.489Z,94.10
2019-03-04T19:07:25.737Z,94.50
2019-03-04T19:09:54.914Z,95.40
2019-03-04T19:12:24.062Z,95.60
2019-03-04T19:14:53.203Z,95.50
2019-03-04T19:17:22.390Z,94.90
2019-03-04T19:19:51.609Z,95.60
2019-03-04T19:22:20.766Z,95.90
2019-03-04T19:24:49.963Z,95.40
2019-03-04T19:27:19.110Z,95.80
2019-03-04T19:29:48.262Z,93.90
2019-03-04T19:32:17.442Z,95.40
2019-03-04T19:34:46.697Z,95.30
2019-03-04T19:37:15.837Z,94.40
2019-03-04T19:39:45.093Z,94.80
2019-03-04T19:42:14.333Z,94.00
2019-03-04T19:44:43.478Z,93.60
2019-03-04T19:47:12.654Z,93.70
2019-03-04T19:49:41.906Z,92.80
2019-03-04T19:52:11.055Z,93.20
2019-03-04T19:54:40.185Z,92.50
2019-03-04T19:57:09.340Z,92.30
2019-03-04T19:59:38.478Z,92.30
2019-03-04T20:02:07.934Z,92.30
2019-03-04T20:04:37.149Z,91.60
2019-03-04T20:07:06.310Z,89.60
2019-03-04T20:09:38.685Z,85.50
2019-03-04T20:12:07.976Z,88.90
2019-03-04T20:14:37.114Z,85.90
2019-03-04T20:17:06.367Z,86.80
2019-03-04T20:19:36.931Z,88.00
2019-03-04T20:22:06.393Z,88.30
2019-03-04T20:24:35.558Z,88.50
2019-03-04T20:27:04.722Z,87.70
2019-03-04T20:29:33.877Z,88.90
2019-03-04T20:32:03.106Z,86.80
2019-03-04T20:34:32.322Z,86.50
2019-03-04T20:37:01.475Z,86.60
2019-03-04T20:39:30.695Z,85.40
2019-03-04T20:42:00.762Z,85.10
2019-03-04T20:44:30.102Z,84.90
2019-03-04T20:46:59.317Z,85.10
2019-03-04T20:49:28.502Z,85.00
2019-03-04T20:51:57.718Z,84.90
2019-03-04T20:54:27.286Z,83.40
2019-03-04T20:56:56.453Z,83.80
2019-03-04T20:59:25.655Z,84.10
2019-03-04T21:01:54.881Z,83.80
2019-03-04T21:04:24.097Z,83.70
2019-03-04T21:06:53.241Z,84.20
2019-03-04T21:09:22.589Z,84.30
2019-03-04T21:11:51.845Z,84.10
2019-03-04T21:14:20.993Z,84.80
2019-03-04T21:16:50.133Z,85.10
2019-03-04T21:19:19.417Z,85.00
2019-03-04T21:21:48.693Z,85.10
2019-03-04T21:24:17.841Z,85.90
2019-03-04T21:26:48.806Z,86.00
2019-03-04T21:29:30.162Z,86.10
2019-03-04T21:32:17.245Z,86.60
2019-03-04T21:35:33.690Z,86.30
2019-03-04T21:38:02.991Z,86.30
2019-03-04T21:40:37.909Z,86.20
2019-03-04T21:43:27.239Z,86.70
2019-03-04T21:46:46.025Z,86.80
2019-03-04T21:49:16.391Z,86.80
2019-03-04T21:52:19.533Z,87.20
2019-03-04T21:54:40.771Z,86.90
2019-03-04T21:57:31.774Z,87.00
2019-03-04T22:00:01.426Z,86.70
2019-03-04T22:02:41.389Z,86.80
2019-03-04T22:05:13.162Z,87.20
2019-03-04T22:07:42.776Z,88.00
2019-03-04T22:10:12.889Z,88.80
2019-03-04T22:12:42.589Z,89.20
2019-03-04T22:15:12.044Z,89.70
2019-03-04T22:17:41.337Z,90.20
2019-03-04T22:20:10.917Z,90.30
2019-03-04T22:22:40.086Z,90.60
2019-03-04T22:25:09.793Z,90.80
2019-03-04T22:27:39.010Z,90.90
2019-03-04T22:30:11.058Z,91.10
2019-03-04T22:32:40.324Z,91.20
2019-03-04T22:35:10.817Z,91.30
2019-03-04T22:37:40.090Z,91.40
2019-03-04T22:40:11.982Z,91.10
2019-03-04T22:42:41.233Z,91.20
2019-03-04T22:45:13.086Z,91.20
2019-03-04T22:47:42.270Z,91.10
2019-03-04T22:50:12.209Z,91.10
2019-03-04T22:52:41.441Z,91.10
2019-03-04T22:55:13.533Z,90.90
2019-03-04T22:57:42.837Z,90.80
2019-03-04T23:01:06.265Z,90.40
2019-03-04T23:03:35.537Z,90.20
2019-03-04T23:06:04.718Z,89.80
2019-03-04T23:08:33.878Z,89.20
2019-03-04T23:11:03.137Z,88.50
2019-03-04T23:13:58.522Z,88.40
2019-03-04T23:16:30.103Z,87.90
2019-03-04T23:18:59.269Z,87.50
2019-03-04T23:21:28.445Z,87.20
2019-03-04T23:23:57.648Z,86.70
2019-03-04T23:26:26.857Z,86.50
2019-03-04T23:28:56.029Z,86.70
2019-03-04T23:31:25.242Z,86.10
2019-03-04T23:33:54.398Z,85.50
2019-03-04T23:36:23.598Z,85.90
2019-03-04T23:38:52.753Z,85.70
2019-03-04T23:41:21.925Z,85.40
2019-03-04T23:43:51.161Z,85.20
2019-03-04T23:46:20.305Z,85.00
2019-03-04T23:48:49.462Z,84.90
2019-03-04T23:51:18.705Z,85.00
2019-03-04T23:53:47.867Z,84.70
2019-03-04T23:56:17.006Z,84.60
2019-03-04T23:58:46.181Z,84.40
